createdAt,value
2022-08-21T03:23:36.706Z,0.00
2022-08-21T03:24:36.657Z,0.00
2022-08-21T04:04:50.481Z,0.00
2022-08-21T04:05:50.435Z,4.00
2022-08-21T04:06:50.392Z,4.00
2022-08-21T06:04:55.916Z,816.00
2022-08-21T06:05:55.855Z,820.00
2022-08-21T06:06:55.808Z,828.00
2022-08-21T06:07:55.761Z,828.00
2022-08-21T06:08:55.918Z,828.00
2022-08-21T06:09:55.667Z,832.00
2022-08-21T06:10:55.625Z,836.00
2022-08-21T06:11:55.579Z,832.00
2022-08-21T06:12:55.616Z,840.00
2022-08-21T06:13:55.489Z,844.00
2022-08-21T06:14:55.446Z,844.00
2022-08-21T06:15:55.403Z,856.00
2022-08-21T06:16:55.359Z,856.00
2022-08-21T06:17:55.316Z,864.00
2022-08-21T06:18:57.511Z,868.00
2022-08-21T06:19:55.223Z,872.00
2022-08-21T10:11:44.892Z,2412.00
2022-08-21T10:14:51.117Z,2020.00
2022-08-21T10:15:51.074Z,2092.00
2022-08-21T10:28:48.810Z,3708.00
2022-08-21T13:51:49.374Z,3396.00
2022-08-21T13:52:49.337Z,3436.00
2022-08-21T13:53:49.300Z,3368.00
2022-08-21T13:54:49.254Z,3236.00
2022-08-21T13:55:49.217Z,3064.00
2022-08-21T13:56:49.178Z,3060.00
2022-08-21T15:56:50.121Z,12456.00
2022-08-21T15:57:57.374Z,7712.00
2022-08-21T15:58:50.051Z,6980.00
2022-08-21T15:59:50.004Z,6584.00
2022-08-21T16:00:49.966Z,6484.00
2022-08-21T16:01:50.019Z,9680.00
2022-08-21T16:05:41.539Z,22272.00
2022-08-21T16:06:54.149Z,24608.00
2022-08-21T16:07:41.457Z,19552.00
2022-08-21T16:08:41.416Z,18112.00
2022-08-21T16:09:41.379Z,12724.00
2022-08-21T16:10:41.343Z,13780.00
2022-08-21T16:11:41.308Z,13280.00
2022-08-21T16:12:41.267Z,13156.00
2022-08-21T16:13:41.235Z,10156.00
2022-08-21T16:14:41.196Z,8052.00
2022-08-21T16:27:13.976Z,16576.00
2022-08-21T16:28:13.923Z,18048.00
2022-08-21T16:29:13.898Z,22240.00
2022-08-21T16:30:13.852Z,40896.00
2022-08-21T16:31:15.446Z,19424.00
2022-08-21T16:32:13.775Z,15012.00
2022-08-21T16:33:13.747Z,16352.00
2022-08-21T16:34:13.709Z,15948.00
2022-08-21T16:35:13.683Z,21728.00
2022-08-21T16:36:13.633Z,16576.00
2022-08-21T16:37:13.597Z,17280.00
2022-08-21T16:38:13.559Z,12252.00
2022-08-21T16:39:13.524Z,10096.00
2022-08-21T16:40:13.520Z,9508.00
2022-08-21T16:41:13.450Z,9020.00
2022-08-21T16:42:13.409Z,8828.00
2022-08-21T16:43:13.388Z,15280.00
2022-08-21T16:44:13.333Z,16704.00
2022-08-21T16:45:13.299Z,16192.00
2022-08-21T16:46:13.262Z,8236.00
2022-08-21T16:48:13.192Z,6432.00
2022-08-21T16:49:13.168Z,9492.00
2022-08-21T16:50:13.117Z,8432.00
2022-08-21T16:51:13.083Z,9368.00
2022-08-21T16:52:13.044Z,9056.00
2022-08-21T16:53:13.001Z,12836.00
2022-08-21T16:54:12.974Z,34848.00
2022-08-21T16:55:12.930Z,34496.00
2022-08-21T16:56:12.897Z,38368.00
2022-08-21T16:58:12.827Z,39648.00
2022-08-21T16:59:12.785Z,40384.00
2022-08-21T17:00:12.747Z,35712.00
2022-08-21T17:01:12.821Z,42720.00
2022-08-21T17:02:12.676Z,46976.00
2022-08-21T17:21:43.370Z,2832.00
2022-08-21T17:22:43.325Z,3448.00
2022-08-21T17:23:43.295Z,3332.00
2022-08-21T17:24:43.266Z,3180.00
2022-08-21T17:25:43.216Z,3112.00
2022-08-21T17:26:43.380Z,3028.00
2022-08-21T17:27:43.135Z,2928.00
2022-08-21T17:28:43.098Z,2852.00
2022-08-21T17:29:43.058Z,2800.00
2022-08-21T17:30:43.018Z,2752.00
2022-08-21T17:32:42.942Z,2664.00
2022-08-21T17:33:42.906Z,2612.00
2022-08-21T17:34:42.866Z,2560.00
2022-08-21T17:35:42.826Z,2428.00
2022-08-21T17:37:42.756Z,2360.00
2022-08-21T17:38:42.725Z,2188.00
2022-08-21T17:39:42.708Z,2460.00
2022-08-21T17:40:42.636Z,2492.00
2022-08-21T17:41:42.603Z,2448.00
2022-08-21T17:42:42.590Z,2440.00
2022-08-21T17:43:42.521Z,2376.00
2022-08-21T17:44:42.489Z,2200.00
2022-08-21T17:45:42.445Z,1604.00
2022-08-21T17:46:42.403Z,1988.00
2022-08-21T17:47:42.364Z,2084.00
2022-08-21T17:48:42.326Z,2052.00
2022-08-21T17:49:42.288Z,2156.00
2022-08-21T17:50:42.251Z,2096.00
2022-08-21T17:51:42.212Z,1424.00
2022-08-21T17:52:42.375Z,1812.00
2022-08-21T17:53:42.133Z,1152.00
2022-08-21T18:05:44.837Z,1028.00
